Horn Island Airport
YHID : now visible

Airfield :











YOU CAN JOIN US ON...

 
LOGIN :

Register | Disclaimer

   EN    FR    IT 

 









Legend :    VFR   Marginal VFR   IFR   Intensive IFR   Very Intensive IFR
Visi :
Ceiling :
>= 8 km
>= 3000ft
5 to 8 km
1000 to 3000 ft
1500m to 5 km
500 to 1000 ft
800 to 1500m
200 to 500 ft
< 800m
< 200 ft
Symbols :   Thunderstorms  Fog  Heavy snow  Heavy precipitations  Wind > 20 kt






- Airport Elevation : 43 ft
- IATA code : HID


YHID - Horn Island

CURRENT METAR :
  • 161900Z AUTO 11019KT 9999 // BKN037 25/18 Q1011 RF00.0/000.0

EXPIRED METARs :
  • 161830Z AUTO 12018KT 9999 // SCT031 BKN039 25/18 Q1011
  • 161800Z AUTO 12018KT 9999 // SCT027 OVC041 25/18 Q1011
  • 161730Z AUTO 11015KT 9999 // SCT031 BKN038 OVC043 25/19 Q1011
  • 161700Z AUTO 11019KT 9999 // OVC039 25/18 Q1011 RF00.0/000.0
  • 161638Z AUTO 11015G25KT 9999 // BKN035 OVC042 25/19 Q1012

TAF TAF YHID
Valid from the 16 at 18:00 until the 17 at 18:00 UTC


161654Z 1618/1718 12016G26KT 9999 BKN030
FM162300 11020G30KT 9999 SCT030
FM170900 12016G26KT 9999 BKN030
YBBB FIR / Oceania



MET'MAP, your aeronautical weather chart ! - Copyright ORBIFLY December 2007 - Disclaimer

ORBIFLY MET'MAP TEAM :

Programming & Development : Alexandra Zaïnal
Concept & original design : Baudouin d'Aumeries
Assistance for programming : Marc-Olivier Méhu
Technical & hardware support : Manuel Goepfert

Contact : metmap@orbifly.com




SOURCES & CREDITS :

   NOAA       Earth
Advisory